createdAt,value
2022-09-04T00:00:10.324Z,101005.88
2022-09-04T00:03:15.735Z,101012.25
2022-09-04T00:05:49.110Z,101009.44
2022-09-04T00:08:34.703Z,100998.44
2022-09-04T00:11:09.582Z,101018.34
2022-09-04T00:13:43.867Z,101018.25
2022-09-04T00:16:19.981Z,101020.50
2022-09-04T00:18:59.711Z,101027.22
2022-09-04T00:21:44.475Z,101025.09
2022-09-04T00:24:16.610Z,101023.97
2022-09-04T00:27:05.689Z,101023.22
2022-09-04T00:29:57.526Z,101023.22
2022-09-04T00:32:47.798Z,101026.50
2022-09-04T00:35:19.916Z,101020.28
2022-09-04T00:37:56.515Z,101028.69
2022-09-04T00:40:39.558Z,101022.44
2022-09-04T00:43:43.626Z,101021.19
2022-09-04T00:46:37.450Z,101024.09
2022-09-04T00:49:32.061Z,101027.25
2022-09-04T00:52:09.970Z,101024.59
2022-09-04T00:54:51.116Z,101025.22
2022-09-04T00:58:04.822Z,101028.94
2022-09-04T01:00:32.946Z,101025.28
2022-09-04T01:03:39.184Z,101030.97
2022-09-04T01:06:35.534Z,101036.66
2022-09-04T01:09:36.153Z,101041.63
2022-09-04T01:12:14.468Z,101026.91
2022-09-04T01:14:53.123Z,101035.16
2022-09-04T01:17:30.072Z,101036.03
2022-09-04T01:20:08.031Z,101020.84
2022-09-04T01:23:20.184Z,101038.09
2022-09-04T01:26:07.415Z,101035.16
2022-09-04T01:28:56.110Z,101043.28
2022-09-04T01:31:35.371Z,101037.06
2022-09-04T01:34:18.206Z,101045.03
2022-09-04T01:36:53.369Z,101049.72
2022-09-04T01:39:31.971Z,101046.16
2022-09-04T01:42:19.052Z,101049.47
2022-09-04T01:44:47.053Z,101046.66
2022-09-04T01:47:22.338Z,101043.66
2022-09-04T01:50:13.174Z,101051.25
2022-09-04T01:52:54.788Z,101055.91
2022-09-04T01:55:31.532Z,101054.88
2022-09-04T01:58:21.495Z,101058.16
2022-09-04T02:01:05.012Z,101058.94
2022-09-04T02:03:43.346Z,101064.38
2022-09-04T02:06:22.892Z,101062.34
2022-09-04T02:09:09.946Z,101056.00
2022-09-04T02:11:39.247Z,101053.19
2022-09-04T02:14:24.385Z,101062.28
2022-09-04T02:17:08.008Z,101072.41
2022-09-04T02:19:58.437Z,101074.94
2022-09-04T02:22:37.023Z,101038.94
2022-09-04T02:25:18.460Z,101073.19
2022-09-04T02:27:55.509Z,101080.38
2022-09-04T02:30:31.896Z,101077.59
2022-09-04T02:33:08.479Z,101077.16
2022-09-04T02:35:42.180Z,101061.19
2022-09-04T02:38:37.805Z,101073.06
2022-09-04T02:41:12.942Z,101066.00
2022-09-04T02:43:57.599Z,101068.38
2022-09-04T02:46:44.399Z,101068.84
2022-09-04T02:49:20.431Z,101059.25
2022-09-04T02:52:09.467Z,101060.09
2022-09-04T02:54:53.720Z,101061.91
2022-09-04T02:57:34.372Z,101063.41
2022-09-04T03:00:08.302Z,101061.22
2022-09-04T03:02:43.636Z,101070.59
2022-09-04T03:05:20.178Z,101076.53
2022-09-04T03:08:01.802Z,101080.34
2022-09-04T03:10:48.285Z,101087.75
2022-09-04T03:13:24.541Z,101059.47
2022-09-04T03:15:58.558Z,101080.28
2022-09-04T03:18:34.055Z,101080.75
2022-09-04T03:21:11.053Z,101076.16
2022-09-04T03:23:47.539Z,101082.72
2022-09-04T03:26:21.514Z,101090.97
2022-09-04T03:29:03.730Z,101091.81
2022-09-04T03:31:39.570Z,101093.19
2022-09-04T03:34:19.206Z,101092.28
2022-09-04T03:37:02.724Z,101080.78
2022-09-04T03:39:43.273Z,101089.50
2022-09-04T03:42:25.292Z,101086.44
2022-09-04T03:45:11.691Z,101097.16
2022-09-04T03:47:58.182Z,101091.72
2022-09-04T03:50:40.631Z,101095.88
2022-09-04T03:53:26.292Z,101101.69
2022-09-04T03:56:18.826Z,101108.97
2022-09-04T03:59:05.871Z,101117.19
2022-09-04T04:01:58.345Z,101116.19
2022-09-04T04:05:12.900Z,101114.97
2022-09-04T04:07:56.559Z,101113.81
2022-09-04T04:10:41.046Z,101113.81
2022-09-04T04:13:49.505Z,101120.81
2022-09-04T04:16:31.430Z,101123.19
2022-09-04T04:19:25.600Z,101129.75
2022-09-04T04:22:18.467Z,101122.38
2022-09-04T04:25:17.584Z,101125.03
2022-09-04T04:28:17.287Z,101141.84
2022-09-04T04:30:52.431Z,101138.56
2022-09-04T04:33:50.013Z,101132.50
2022-09-04T04:36:50.984Z,101139.03
2022-09-04T04:39:30.446Z,101138.28
2022-09-04T04:42:21.606Z,101141.56
2022-09-04T04:45:34.446Z,101146.75
2022-09-04T04:48:50.709Z,101156.88
2022-09-04T04:51:42.999Z,101159.41
2022-09-04T04:54:24.774Z,101160.28
2022-09-04T04:57:02.217Z,101157.91
2022-09-04T04:59:46.291Z,101162.06
2022-09-04T05:02:21.495Z,101163.56
2022-09-04T05:05:15.975Z,101168.00
2022-09-04T05:07:55.871Z,101155.38
2022-09-04T05:10:31.750Z,101170.22
2022-09-04T05:13:12.775Z,101138.75
2022-09-04T05:16:09.432Z,101171.94
2022-09-04T05:18:53.182Z,101171.34
2022-09-04T05:21:49.921Z,101186.22
2022-09-04T05:24:30.508Z,101193.94
2022-09-04T05:27:09.083Z,101190.66
2022-09-04T05:29:51.265Z,101195.41
2022-09-04T05:32:28.554Z,101195.66
2022-09-04T05:35:35.268Z,101197.72
2022-09-04T05:38:16.447Z,101207.00
2022-09-04T05:41:06.408Z,101209.56
2022-09-04T05:43:57.817Z,101204.16
2022-09-04T05:46:46.433Z,101198.28
2022-09-04T05:52:48.026Z,101205.66
2022-09-04T05:56:12.664Z,101214.09
2022-09-04T05:59:00.599Z,101213.97
2022-09-04T06:02:01.585Z,101219.50
2022-09-04T06:05:04.672Z,101221.63
2022-09-04T06:07:43.555Z,101221.66
2022-09-04T06:10:28.166Z,101219.47
2022-09-04T06:13:09.944Z,101226.47
2022-09-04T06:15:48.009Z,101204.75
2022-09-04T06:18:47.008Z,101227.84
2022-09-04T06:21:50.169Z,101236.97
2022-09-04T06:24:33.031Z,101236.97
2022-09-04T06:27:23.603Z,101234.56
2022-09-04T06:30:05.237Z,101231.25
2022-09-04T06:33:26.610Z,101242.19
2022-09-04T06:36:29.478Z,101238.91
2022-09-04T06:39:27.184Z,101239.13
2022-09-04T06:42:21.608Z,101252.22
2022-09-04T06:45:06.105Z,101242.19
2022-09-04T06:48:01.072Z,101249.06
2022-09-04T06:51:03.463Z,101241.78
2022-09-04T06:53:53.498Z,101244.34
2022-09-04T06:56:47.846Z,101242.03
2022-09-04T06:59:31.963Z,101246.72
2022-09-04T07:02:19.454Z,101244.78
2022-09-04T07:05:05.125Z,101253.06
2022-09-04T07:07:42.682Z,101253.81
2022-09-04T07:10:17.433Z,101257.63
2022-09-04T07:13:19.316Z,101250.91
2022-09-04T07:16:18.579Z,101253.81
2022-09-04T07:19:24.237Z,101255.72
2022-09-04T07:22:03.893Z,101258.75
2022-09-04T07:25:19.618Z,101256.69
2022-09-04T07:28:02.567Z,101257.31
2022-09-04T07:30:38.011Z,101251.47
2022-09-04T07:33:22.129Z,101260.72
2022-09-04T07:35:59.331Z,101257.09
2022-09-04T07:38:41.837Z,101256.69
2022-09-04T07:41:31.305Z,101268.38
2022-09-04T07:44:10.928Z,101256.75
2022-09-04T07:46:46.926Z,101269.44
2022-09-04T07:49:33.841Z,101271.91
2022-09-04T07:52:14.409Z,101274.44
2022-09-04T07:55:13.142Z,101284.22
2022-09-04T07:58:07.824Z,101276.72
2022-09-04T08:01:07.312Z,101279.22
2022-09-04T08:03:57.221Z,101286.22
2022-09-04T08:06:32.795Z,101288.19
2022-09-04T08:09:32.314Z,101295.81
2022-09-04T08:12:42.711Z,101303.47
2022-09-04T08:15:29.053Z,101306.06
2022-09-04T08:18:22.114Z,101308.38
2022-09-04T08:21:02.526Z,101313.50
2022-09-04T08:24:09.570Z,101313.63
2022-09-04T08:26:56.537Z,101302.53
2022-09-04T08:29:51.868Z,101320.47
2022-09-04T08:32:57.110Z,101318.38
2022-09-04T08:35:29.557Z,101317.66
2022-09-04T08:38:37.548Z,101308.72
2022-09-04T08:41:54.470Z,101317.31
2022-09-04T08:45:13.280Z,101310.25
2022-09-04T08:48:32.316Z,101321.88
2022-09-04T08:51:51.548Z,101320.56
2022-09-04T08:55:03.087Z,101318.66
2022-09-04T08:57:53.401Z,101312.00
2022-09-04T09:01:04.458Z,101323.63
2022-09-04T09:04:25.744Z,101324.38
2022-09-04T09:07:21.344Z,101316.59
2022-09-04T09:10:43.258Z,101318.94
2022-09-04T09:13:40.255Z,101322.25
2022-09-04T09:16:21.391Z,101323.06
2022-09-04T09:19:10.325Z,101328.63
2022-09-04T09:21:46.030Z,101332.22
2022-09-04T09:24:43.949Z,101327.63
2022-09-04T09:27:35.030Z,101328.97
2022-09-04T09:30:08.994Z,101321.16
2022-09-04T09:33:12.841Z,101317.81
2022-09-04T09:36:36.824Z,101324.13
2022-09-04T09:40:00.507Z,101317.06
2022-09-04T09:43:18.902Z,101314.19
2022-09-04T09:46:25.779Z,101304.66
2022-09-04T09:49:31.327Z,101302.09
2022-09-04T09:52:47.023Z,101298.44
2022-09-04T09:55:55.966Z,101272.16
2022-09-04T09:58:52.607Z,101293.56
2022-09-04T10:01:49.917Z,101293.13
2022-09-04T10:05:03.635Z,101301.78
2022-09-04T10:08:35.542Z,101298.25
2022-09-04T10:11:52.690Z,101302.44
2022-09-04T10:15:02.561Z,101304.16
2022-09-04T10:18:01.471Z,101296.69
2022-09-04T10:21:02.668Z,101294.09
2022-09-04T10:24:01.177Z,101290.63
2022-09-04T10:27:06.037Z,101300.03
2022-09-04T10:30:00.686Z,101280.09
2022-09-04T10:33:30.141Z,101303.03
2022-09-04T10:36:37.185Z,101302.16
2022-09-04T10:39:46.830Z,101305.94
2022-09-04T10:42:41.275Z,101309.75
2022-09-04T10:45:26.145Z,101306.75
2022-09-04T10:48:28.319Z,101302.13
2022-09-04T10:51:05.764Z,101299.22
2022-09-04T10:54:11.471Z,101294.13
2022-09-04T10:56:47.157Z,101297.59
2022-09-04T10:59:47.523Z,101290.16
2022-09-04T11:02:37.117Z,101288.06
2022-09-04T11:05:44.429Z,101291.59
2022-09-04T11:08:47.065Z,101293.84
2022-09-04T11:11:45.784Z,101275.94
2022-09-04T11:14:37.895Z,101295.94
2022-09-04T11:17:41.426Z,101284.03
2022-09-04T11:20:44.973Z,101278.59
2022-09-04T11:24:15.298Z,101284.81
2022-09-04T11:27:36.410Z,101282.25
2022-09-04T11:33:42.639Z,101286.59
2022-09-04T11:36:44.048Z,101281.19
2022-09-04T11:39:46.973Z,101284.09
2022-09-04T11:42:33.269Z,101285.91
2022-09-04T11:45:34.145Z,101281.38
2022-09-04T11:48:43.486Z,101286.97
2022-09-04T11:51:41.440Z,101283.03
2022-09-04T11:54:46.913Z,101279.50
2022-09-04T11:57:26.317Z,101271.69
2022-09-04T12:03:36.869Z,101268.59
2022-09-04T12:06:35.111Z,101263.09
2022-09-04T12:09:48.953Z,101280.84
2022-09-04T12:13:20.189Z,101257.22
2022-09-04T12:16:12.477Z,101260.09
2022-09-04T12:19:20.426Z,101226.69
2022-09-04T12:22:12.597Z,101259.88
2022-09-04T12:25:39.676Z,101238.41
2022-09-04T12:28:45.261Z,101261.88
2022-09-04T12:31:38.331Z,101217.13
2022-09-04T12:34:50.483Z,101257.31
2022-09-04T12:38:08.440Z,101264.34
2022-09-04T12:40:50.273Z,101248.75
2022-09-04T12:43:38.807Z,101265.03
2022-09-04T12:46:35.229Z,101273.91
2022-09-04T12:49:28.681Z,101271.59
2022-09-04T12:52:19.139Z,101267.84
2022-09-04T12:55:06.907Z,101253.41
2022-09-04T12:57:55.614Z,101266.84
2022-09-04T13:00:40.727Z,101248.47
2022-09-04T13:03:26.920Z,101269.13
2022-09-04T13:06:23.536Z,101270.69
2022-09-04T13:09:11.358Z,101273.13
2022-09-04T13:11:52.412Z,101284.25
2022-09-04T13:14:48.975Z,101285.94
2022-09-04T13:17:25.830Z,101270.38
2022-09-04T13:20:11.253Z,101271.50
2022-09-04T13:22:47.926Z,101273.69
2022-09-04T13:25:30.138Z,101276.09
2022-09-04T13:28:17.023Z,101271.38
2022-09-04T13:31:02.128Z,101283.72
2022-09-04T13:33:49.204Z,101279.97
2022-09-04T13:36:46.984Z,101274.81
2022-09-04T13:39:32.423Z,101278.78
2022-09-04T13:42:21.287Z,101279.50
2022-09-04T13:45:07.956Z,101284.94
2022-09-04T13:47:49.583Z,101278.50
2022-09-04T13:50:25.955Z,101280.19
2022-09-04T13:52:59.804Z,101284.25
2022-09-04T13:55:30.613Z,101285.19
2022-09-04T13:58:10.586Z,101287.25
2022-09-04T14:00:46.950Z,101283.31
2022-09-04T14:03:31.797Z,101280.47
2022-09-04T14:06:01.022Z,101282.44
2022-09-04T14:09:05.571Z,101278.50
2022-09-04T14:11:59.691Z,101282.06
2022-09-04T14:14:59.625Z,101273.44
2022-09-04T14:17:47.627Z,101283.09
2022-09-04T14:20:22.720Z,101278.34
2022-09-04T14:23:01.792Z,101283.66
2022-09-04T14:25:40.952Z,101276.44
2022-09-04T14:28:18.310Z,101277.94
2022-09-04T14:31:02.597Z,101277.81
2022-09-04T14:34:02.025Z,101289.50
2022-09-04T14:36:56.643Z,101276.91
2022-09-04T14:39:33.420Z,101284.50
2022-09-04T14:42:36.567Z,101281.88
2022-09-04T14:45:33.386Z,101285.72
2022-09-04T14:48:05.526Z,101278.56
2022-09-04T14:50:46.538Z,101278.28
2022-09-04T14:53:24.524Z,101283.59
2022-09-04T14:56:21.039Z,101286.06
2022-09-04T14:58:53.722Z,101281.69
2022-09-04T15:01:32.615Z,101291.38
2022-09-04T15:04:08.483Z,101282.53
2022-09-04T15:07:01.036Z,101275.03
2022-09-04T15:09:36.794Z,101281.13
2022-09-04T15:12:26.859Z,101287.97
2022-09-04T15:15:11.719Z,101288.25
2022-09-04T15:18:01.807Z,101277.72
2022-09-04T15:20:36.049Z,101281.19
2022-09-04T15:23:15.538Z,101276.91
2022-09-04T15:25:59.794Z,101277.81
2022-09-04T15:28:34.510Z,101280.91
2022-09-04T15:31:15.626Z,101284.13
2022-09-04T15:33:46.845Z,101283.16
2022-09-04T15:36:20.877Z,101279.50
2022-09-04T15:38:52.504Z,101286.84
2022-09-04T15:41:42.523Z,101291.38
2022-09-04T15:44:21.407Z,101286.34
2022-09-04T15:47:02.724Z,101289.88
2022-09-04T15:49:49.890Z,101288.94
2022-09-04T15:52:31.312Z,101280.84
2022-09-04T15:55:12.462Z,101280.78
2022-09-04T15:57:56.016Z,101271.09
2022-09-04T16:00:26.440Z,101273.78
2022-09-04T16:03:06.879Z,101285.91
2022-09-04T16:05:44.692Z,101271.91
2022-09-04T16:08:23.667Z,101275.38
2022-09-04T16:11:00.419Z,101275.16
2022-09-04T16:13:57.822Z,101273.00
2022-09-04T16:16:31.998Z,101279.44
2022-09-04T16:19:15.417Z,101276.34
2022-09-04T16:21:51.559Z,101284.75
2022-09-04T16:24:24.876Z,101277.72
2022-09-04T16:26:58.082Z,101276.66
2022-09-04T16:29:36.381Z,101278.09
2022-09-04T16:32:09.713Z,101279.72
2022-09-04T16:34:49.531Z,101282.28
2022-09-04T16:37:31.224Z,101278.47
2022-09-04T16:40:13.516Z,101285.78
2022-09-04T16:42:50.828Z,101291.59
2022-09-04T16:45:28.192Z,101276.75
2022-09-04T16:48:14.476Z,101272.78
2022-09-04T16:51:40.165Z,101281.09
2022-09-04T16:54:23.228Z,101268.50
2022-09-04T16:57:12.068Z,101279.75
2022-09-04T16:59:43.331Z,101283.50
2022-09-04T17:02:26.534Z,101281.41
2022-09-04T17:05:17.955Z,101287.31
2022-09-04T17:07:53.429Z,101296.66
2022-09-04T17:10:45.412Z,101298.09
2022-09-04T17:13:30.699Z,101285.81
2022-09-04T17:16:11.216Z,101286.16
2022-09-04T17:18:49.386Z,101291.41
2022-09-04T17:27:58.784Z,101291.09
2022-09-04T17:29:02.819Z,101296.75
2022-09-04T17:29:19.624Z,101300.75
2022-09-04T17:30:43.357Z,101301.13
2022-09-04T17:40:06.238Z,101309.56
2022-09-04T17:40:35.189Z,101304.19
2022-09-04T17:40:54.606Z,101306.47
2022-09-04T17:42:08.175Z,101314.00
2022-09-04T17:44:48.694Z,101302.34
2022-09-04T17:47:28.627Z,101314.41
2022-09-04T17:50:02.652Z,101307.00
2022-09-04T17:52:36.785Z,101313.75
2022-09-04T17:55:07.318Z,101324.53
2022-09-04T17:57:52.638Z,101322.53
2022-09-04T18:00:24.121Z,101322.19
2022-09-04T18:02:58.407Z,101325.25
2022-09-04T18:05:33.678Z,101322.38
2022-09-04T18:08:12.374Z,101323.63
2022-09-04T18:10:53.657Z,101327.66
2022-09-04T18:13:37.699Z,101337.50
2022-09-04T18:16:16.357Z,101332.09
2022-09-04T18:18:48.153Z,101336.09
2022-09-04T18:21:23.050Z,101340.97
2022-09-04T18:24:03.768Z,101352.59
2022-09-04T18:26:42.083Z,101354.09
2022-09-04T18:30:26.129Z,101351.97
2022-09-04T18:37:11.620Z,101364.66
2022-09-04T18:37:22.851Z,101352.22
2022-09-04T18:38:20.628Z,101348.13
2022-09-04T18:48:17.313Z,101361.78
2022-09-04T18:50:25.240Z,101365.84
2022-09-04T18:50:29.205Z,101364.25
2022-09-04T18:50:39.645Z,101361.94
2022-09-04T18:52:30.089Z,101364.78
2022-09-04T18:55:08.533Z,101369.66
2022-09-04T18:57:51.996Z,101351.72
2022-09-04T19:00:26.421Z,101369.19
2022-09-04T19:03:07.071Z,101378.47
2022-09-04T19:05:44.363Z,101379.09
2022-09-04T19:08:19.837Z,101383.84
2022-09-04T19:10:57.032Z,101371.78
2022-09-04T19:13:40.534Z,101375.09
2022-09-04T19:16:39.297Z,101363.38
2022-09-04T19:19:17.431Z,101374.41
2022-09-04T19:21:58.255Z,101373.34
2022-09-04T19:24:37.316Z,101378.22
2022-09-04T19:27:26.678Z,101369.91
2022-09-04T19:30:18.924Z,101377.59
2022-09-04T19:33:06.076Z,101382.63
2022-09-04T19:35:40.249Z,101391.81
2022-09-04T19:40:34.591Z,101381.09
2022-09-04T19:45:59.534Z,101392.25
2022-09-04T19:46:25.914Z,101392.84
2022-09-04T19:47:29.478Z,101390.88
2022-09-04T19:53:03.464Z,101380.84
2022-09-04T19:53:36.808Z,101391.81
2022-09-04T19:56:02.559Z,101393.38
2022-09-04T19:58:38.776Z,101398.38
2022-09-04T20:01:14.929Z,101399.19
2022-09-04T20:03:51.481Z,101379.47
2022-09-04T20:06:24.790Z,101403.59
2022-09-04T20:08:59.446Z,101390.13
2022-09-04T20:11:48.535Z,101405.69
2022-09-04T20:14:25.744Z,101405.59
2022-09-04T20:17:08.428Z,101405.09
2022-09-04T20:19:43.335Z,101411.78
2022-09-04T20:22:32.942Z,101416.16
2022-09-04T20:25:16.590Z,101408.16
2022-09-04T20:27:48.581Z,101412.38
2022-09-04T20:30:21.439Z,101414.16
2022-09-04T20:32:56.547Z,101415.75
2022-09-04T20:35:38.691Z,101414.06
2022-09-04T20:38:23.170Z,101421.84
2022-09-04T20:40:57.622Z,101412.19
2022-09-04T20:43:36.285Z,101419.69
2022-09-04T20:49:27.278Z,101413.53
2022-09-04T20:52:57.009Z,101415.78
2022-09-04T20:52:57.783Z,101422.31
2022-09-04T20:55:46.132Z,101418.63
2022-09-04T21:03:05.738Z,101422.16
2022-09-04T21:03:18.413Z,101402.25
2022-09-04T21:04:42.194Z,101420.69
2022-09-04T21:07:20.461Z,101428.84
2022-09-04T21:09:59.633Z,101422.88
2022-09-04T21:12:37.698Z,101422.53
2022-09-04T21:15:14.702Z,101427.47
2022-09-04T21:18:21.920Z,101426.25
2022-09-04T21:21:03.406Z,101435.72
2022-09-04T21:24:03.036Z,101442.50
2022-09-04T21:26:59.680Z,101450.09
2022-09-04T21:29:53.000Z,101445.53
2022-09-04T21:32:44.556Z,101446.22
2022-09-04T21:35:19.859Z,101448.69
2022-09-04T21:37:56.141Z,101453.78
2022-09-04T21:40:58.464Z,101450.03
2022-09-04T21:44:02.572Z,101448.06
2022-09-04T21:46:49.185Z,101450.38
2022-09-04T21:49:36.604Z,101452.75
2022-09-04T21:52:37.846Z,101447.44
2022-09-04T21:57:27.344Z,101451.44
2022-09-04T22:02:39.063Z,101468.47
2022-09-04T22:02:40.987Z,101464.69
2022-09-04T22:04:50.707Z,101470.38
2022-09-04T22:12:02.943Z,101466.16
2022-09-04T22:13:38.286Z,101467.59
2022-09-04T22:13:49.341Z,101478.38
2022-09-04T22:16:33.848Z,101465.16
2022-09-04T22:19:17.047Z,101467.72
2022-09-04T22:22:05.382Z,101465.94
2022-09-04T22:25:01.484Z,101464.06
2022-09-04T22:28:08.621Z,101471.28
2022-09-04T22:31:04.056Z,101470.19
2022-09-04T22:34:15.022Z,101470.00
2022-09-04T22:37:26.173Z,101473.13
2022-09-04T22:40:18.194Z,101474.66
2022-09-04T22:42:51.285Z,101467.03
2022-09-04T22:45:38.352Z,101435.41
2022-09-04T22:48:40.903Z,101482.00
2022-09-04T22:51:23.679Z,101479.25
2022-09-04T22:54:18.998Z,101468.50
2022-09-04T22:56:54.155Z,101474.81
2022-09-04T23:00:02.160Z,101475.16
2022-09-04T23:03:07.629Z,101477.38
2022-09-04T23:06:18.861Z,101473.81
2022-09-04T23:13:53.398Z,101472.59
2022-09-04T23:13:54.537Z,101475.41
2022-09-04T23:15:28.804Z,101462.72
2022-09-04T23:23:07.759Z,101476.50
2022-09-04T23:26:37.794Z,101468.91
2022-09-04T23:26:47.349Z,101476.94
2022-09-04T23:27:52.425Z,101475.66
2022-09-04T23:30:25.677Z,101472.81
2022-09-04T23:33:27.478Z,101475.22
2022-09-04T23:36:11.251Z,101470.25
2022-09-04T23:39:16.967Z,101475.00
2022-09-04T23:42:13.275Z,101477.34
2022-09-04T23:45:07.570Z,101474.56
2022-09-04T23:48:02.083Z,101476.00
2022-09-04T23:50:41.356Z,101476.66
2022-09-04T23:53:19.929Z,101469.56
2022-09-04T23:56:00.005Z,101473.53
2022-09-04T23:59:05.055Z,101472.53
